Time;durP1;ratioP1;P1;durP2;ratioP2;P2;SDS_P1;SDS_P2;PMS_P1;PMS_P2;Temp;Humidity;BMP_temperature;BMP_pressure;BME280_temperature;BME280_humidity;BME280_pressure;Samples;Min_cycle;Max_cycle;Signal;HPM_P1;HPM_P2
2022/01/07 00:01:55;;;;;;;14.82;5.63;;;;;;;2.36;100.00;101321.47;5082826;28;20062;-75
2022/01/07 00:04:23;;;;;;;11.98;6.10;;;;;;;2.37;100.00;101309.22;5088056;28;20036;-74
2022/01/07 00:06:51;;;;;;;11.35;5.30;;;;;;;2.37;100.00;101310.09;5085114;28;20058;-74
2022/01/07 00:09:19;;;;;;;14.85;4.75;;;;;;;2.36;100.00;101308.31;5085585;28;20131;-75
2022/01/07 00:11:47;;;;;;;16.27;5.55;;;;;;;2.33;100.00;101307.41;5089489;27;20827;-75
2022/01/07 00:14:15;;;;;;;11.73;4.43;;;;;;;2.36;100.00;101303.03;5089564;27;20136;-75
2022/01/07 00:16:42;;;;;;;11.10;4.82;;;;;;;2.38;100.00;101300.41;5093135;27;20142;-74
2022/01/07 00:19:12;;;;;;;15.00;5.05;;;;;;;2.34;100.00;101303.91;5088606;28;20047;-74
2022/01/07 00:21:40;;;;;;;15.70;6.00;;;;;;;2.35;100.00;101300.38;5089648;27;20052;-74
2022/01/07 00:24:08;;;;;;;8.70;4.40;;;;;;;2.39;100.00;101294.28;5090121;28;20054;-74
2022/01/07 00:26:36;;;;;;;9.90;4.65;;;;;;;2.36;100.00;101291.63;5088114;28;20321;-74
2022/01/07 00:29:05;;;;;;;11.90;4.53;;;;;;;2.36;100.00;101292.50;5089393;28;20183;-74
2022/01/07 00:31:57;;;;;;;13.38;4.60;;;;;;;2.40;100.00;101274.97;5090515;28;20163;-74
2022/01/07 00:34:26;;;;;;;14.65;5.65;;;;;;;2.40;100.00;101277.59;5090270;28;20051;-74
2022/01/07 00:36:54;;;;;;;7.70;4.25;;;;;;;2.39;100.00;101274.09;5090977;28;21715;-74
2022/01/07 00:39:22;;;;;;;8.23;4.60;;;;;;;2.45;100.00;101270.63;5093259;27;20365;-74
2022/01/07 00:41:50;;;;;;;14.13;4.38;;;;;;;2.43;100.00;101262.72;5091296;27;20736;-74
2022/01/07 00:44:18;;;;;;;11.00;4.97;;;;;;;2.40;100.00;101260.06;5088985;28;20602;-74
2022/01/07 00:46:45;;;;;;;14.85;6.40;;;;;;;2.38;100.00;101261.81;5090308;27;20387;-74
2022/01/07 00:49:20;;;;;;;13.15;4.65;;;;;;;2.45;100.00;101254.81;5089495;28;20143;-74
2022/01/07 00:51:50;;;;;;;13.05;5.47;;;;;;;2.41;100.00;101256.53;5088345;27;20058;-74
2022/01/07 00:54:19;;;;;;;9.35;4.72;;;;;;;2.48;100.00;101254.84;5088912;28;20064;-74
2022/01/07 00:56:47;;;;;;;9.55;4.95;;;;;;;2.49;100.00;101250.47;5087838;27;20045;-74
2022/01/07 00:59:15;;;;;;;13.45;5.25;;;;;;;2.49;100.00;101242.56;5084629;27;20148;-71
2022/01/07 01:01:43;;;;;;;9.07;4.80;;;;;;;2.46;100.00;101240.78;5090634;27;20511;-71
2022/01/07 01:04:31;;;;;;;15.25;5.15;;;;;;;2.43;100.00;101239.03;5087506;27;20083;-71
2022/01/07 01:07:00;;;;;;;10.27;5.18;;;;;;;2.41;100.00;101238.09;5089414;28;20139;-72
2022/01/07 01:09:29;;;;;;;13.50;5.30;;;;;;;2.40;100.00;101233.72;5087089;28;20135;-71
2022/01/07 01:11:57;;;;;;;11.90;5.60;;;;;;;2.43;100.00;101236.41;5089812;28;20056;-70
2022/01/07 01:14:28;;;;;;;17.30;6.35;;;;;;;2.44;100.00;101224.09;5087175;27;20059;-71
2022/01/07 01:16:59;;;;;;;15.00;5.35;;;;;;;2.50;100.00;101226.75;5088949;28;20155;-70
2022/01/07 01:19:31;;;;;;;15.90;5.72;;;;;;;2.45;100.00;101224.97;5087964;28;20194;-70
2022/01/07 01:22:01;;;;;;;20.90;7.53;;;;;;;2.42;100.00;101213.53;5089368;28;20084;-70
2022/01/07 01:24:29;;;;;;;10.48;6.03;;;;;;;2.45;100.00;101219.69;5090067;28;20048;-70
2022/01/07 01:26:58;;;;;;;20.10;6.25;;;;;;;2.49;100.00;101213.59;5087244;28;20085;-70
2022/01/07 01:29:26;;;;;;;14.40;6.88;;;;;;;2.47;100.00;101210.03;5089946;28;20072;-70
2022/01/07 01:31:54;;;;;;;13.23;6.00;;;;;;;2.48;100.00;101207.44;5086151;27;20126;-70
2022/01/07 01:34:21;;;;;;;12.68;7.03;;;;;;;2.50;100.00;101194.28;5087436;28;20339;-70
2022/01/07 01:36:49;;;;;;;16.63;7.00;;;;;;;2.51;100.00;101194.28;5089534;27;20046;-71
2022/01/07 01:39:18;;;;;;;13.20;6.78;;;;;;;2.53;100.00;101176.72;5087424;28;20051;-71
2022/01/07 01:41:47;;;;;;;17.45;7.10;;;;;;;2.63;100.00;101192.59;5090037;28;20058;-70
2022/01/07 01:44:15;;;;;;;17.42;7.05;;;;;;;2.60;100.00;101180.28;5085347;28;20047;-70
2022/01/07 01:46:43;;;;;;;20.02;7.82;;;;;;;2.60;100.00;101183.78;5085286;28;20066;-70
2022/01/07 01:49:12;;;;;;;15.93;7.70;;;;;;;2.63;100.00;101175.03;5086375;28;20098;-69
2022/01/07 01:51:40;;;;;;;13.65;7.32;;;;;;;2.67;100.00;101173.28;5088175;28;20138;-70
2022/01/07 01:54:08;;;;;;;13.32;7.25;;;;;;;2.73;100.00;101174.22;5087881;28;20062;-69
2022/01/07 01:56:37;;;;;;;16.33;7.97;;;;;;;2.71;100.00;101168.06;5088446;28;20443;-69
2022/01/07 01:59:05;;;;;;;14.60;7.88;;;;;;;2.69;100.00;101174.19;5087685;28;20125;-69
2022/01/07 02:01:59;;;;;;;19.33;7.63;;;;;;;2.71;100.00;101173.34;5087303;28;20055;-71
2022/01/07 02:04:28;;;;;;;18.05;6.50;;;;;;;2.79;100.00;101173.34;5086655;28;20043;-70
2022/01/07 02:06:56;;;;;;;15.95;8.23;;;;;;;2.72;100.00;101159.25;5085808;28;20166;-70
2022/01/07 02:09:31;;;;;;;24.08;8.60;;;;;;;2.72;100.00;101156.63;5089282;28;20064;-70
2022/01/07 02:12:01;;;;;;;15.98;7.90;;;;;;;2.74;100.00;101151.38;5088400;27;20708;-69
2022/01/07 02:14:29;;;;;;;14.65;8.18;;;;;;;2.77;100.00;101154.03;5088374;28;20044;-69
2022/01/07 02:17:04;;;;;;;17.20;7.78;;;;;;;2.77;100.00;101151.38;5085981;28;20050;-68
2022/01/07 02:19:33;;;;;;;14.98;8.05;;;;;;;2.76;100.00;101144.38;5088085;27;20083;-71
2022/01/07 02:22:03;;;;;;;13.10;7.45;;;;;;;2.77;100.00;101151.38;5086423;28;20091;-69
2022/01/07 02:24:31;;;;;;;16.05;8.25;;;;;;;2.77;100.00;101148.75;5086275;28;20063;-71
2022/01/07 02:27:00;;;;;;;13.70;6.68;;;;;;;2.76;100.00;101147.88;5088002;28;20058;-68
2022/01/07 02:29:27;;;;;;;15.23;7.57;;;;;;;2.75;100.00;101137.34;5088158;28;20099;-69
2022/01/07 02:31:56;;;;;;;13.00;8.27;;;;;;;2.67;100.00;101139.91;5089463;28;20182;-69
2022/01/07 02:34:24;;;;;;;20.98;8.15;;;;;;;2.73;100.00;101137.31;5083281;27;20052;-70
2022/01/07 02:36:53;;;;;;;19.42;7.85;;;;;;;2.74;100.00;101138.19;5087838;28;20631;-70
2022/01/07 02:39:21;;;;;;;17.50;9.13;;;;;;;2.64;100.00;101132.03;5086920;28;20104;-70
2022/01/07 02:41:49;;;;;;;16.63;8.15;;;;;;;2.67;100.00;101125.88;5068845;28;20047;-69
2022/01/07 02:44:18;;;;;;;15.27;8.55;;;;;;;2.64;100.00;101121.47;5087080;28;20039;-70
2022/01/07 02:46:46;;;;;;;20.60;9.85;;;;;;;2.65;100.00;101111.81;5086281;28;20044;-69
2022/01/07 02:49:15;;;;;;;19.50;9.27;;;;;;;2.72;100.00;101118.88;5087690;28;20052;-71
2022/01/07 02:51:44;;;;;;;17.55;9.70;;;;;;;2.68;100.00;101114.47;5084710;28;20060;-71
2022/01/07 02:54:14;;;;;;;18.77;8.98;;;;;;;2.67;100.00;101110.94;5083230;27;20442;-71
2022/01/07 02:56:42;;;;;;;20.67;11.20;;;;;;;2.74;100.00;101112.75;5084802;27;20441;-73
2022/01/07 02:59:11;;;;;;;21.38;11.43;;;;;;;2.74;100.00;101099.56;5086486;28;20052;-69
2022/01/07 03:01:40;;;;;;;19.98;10.80;;;;;;;2.82;100.00;101107.50;5084949;28;20131;-69
2022/01/07 03:04:08;;;;;;;19.38;11.82;;;;;;;2.81;100.00;101121.56;5087777;27;20052;-69
2022/01/07 03:06:37;;;;;;;18.13;9.82;;;;;;;2.84;100.00;101118.03;5085025;27;20047;-69
2022/01/07 03:09:06;;;;;;;19.13;10.27;;;;;;;2.88;100.00;101112.78;5087272;27;20044;-69
2022/01/07 03:11:35;;;;;;;18.70;9.75;;;;;;;2.91;100.00;101109.28;5085403;28;20134;-70
2022/01/07 03:14:04;;;;;;;18.25;10.55;;;;;;;2.92;100.00;101104.00;5085213;28;20047;-70
2022/01/07 03:16:32;;;;;;;18.45;10.73;;;;;;;2.92;100.00;101095.22;5089255;27;20124;-69
2022/01/07 03:19:02;;;;;;;15.23;9.88;;;;;;;2.93;100.00;101105.78;5085712;28;20131;-70
2022/01/07 03:21:30;;;;;;;19.15;10.32;;;;;;;2.96;100.00;101100.53;5086343;28;20136;-69
2022/01/07 03:23:58;;;;;;;20.23;10.90;;;;;;;2.96;100.00;101089.06;5084629;27;20081;-70
2022/01/07 03:26:25;;;;;;;17.95;11.23;;;;;;;2.96;100.00;101097.88;5085730;28;20043;-70
2022/01/07 03:28:55;;;;;;;19.08;10.70;;;;;;;2.96;100.00;101091.72;5085830;28;20048;-70
2022/01/07 03:31:23;;;;;;;18.15;10.80;;;;;;;2.98;100.00;101085.59;5086061;28;20053;-70
2022/01/07 03:33:50;;;;;;;17.60;9.90;;;;;;;3.03;100.00;101075.06;5085018;28;20504;-70
2022/01/07 03:36:18;;;;;;;17.23;9.52;;;;;;;3.03;100.00;101084.72;5083862;28;20050;-70
2022/01/07 03:38:46;;;;;;;17.38;10.15;;;;;;;3.05;100.00;101075.94;5086273;28;20049;-70
2022/01/07 03:41:19;;;;;;;17.95;10.30;;;;;;;3.04;100.00;101068.91;5085353;27;20079;-69
2022/01/07 03:43:47;;;;;;;15.13;9.10;;;;;;;3.06;100.00;101063.63;5088370;27;20131;-70
2022/01/07 03:46:17;;;;;;;19.05;10.25;;;;;;;3.04;100.00;101063.63;5084310;28;20446;-70
2022/01/07 03:48:44;;;;;;;18.05;10.65;;;;;;;2.99;100.00;101063.59;5088372;27;20051;-72
2022/01/07 03:51:12;;;;;;;15.43;10.05;;;;;;;3.03;100.00;101053.06;5086714;28;20050;-70
2022/01/07 03:53:40;;;;;;;17.20;10.70;;;;;;;3.05;100.00;101044.31;5082964;28;20083;-70
2022/01/07 03:56:10;;;;;;;21.60;10.93;;;;;;;3.03;100.00;101035.53;5081256;28;20506;-70
2022/01/07 03:58:38;;;;;;;16.55;11.00;;;;;;;3.12;100.00;101037.28;5085605;28;20178;-70
2022/01/07 04:01:06;;;;;;;17.08;11.07;;;;;;;3.05;100.00;101027.59;5086671;28;20047;-70
2022/01/07 04:03:37;;;;;;;16.60;10.77;;;;;;;3.02;100.00;101024.97;5064612;28;20533;-68
2022/01/07 04:06:07;;;;;;;20.45;10.80;;;;;;;3.04;100.00;101025.84;5064928;28;20052;-70
2022/01/07 04:08:34;;;;;;;16.75;8.35;;;;;;;3.14;100.00;101028.47;5064426;28;20151;-74
2022/01/07 04:11:02;;;;;;;24.38;11.63;;;;;;;3.12;100.00;101026.75;5069606;28;20075;-74
2022/01/07 04:13:32;;;;;;;15.90;11.73;;;;;;;3.12;100.00;101032.00;5066435;28;20091;-74
2022/01/07 04:16:00;;;;;;;16.27;10.18;;;;;;;3.16;100.00;101031.13;5066772;28;20111;-75
2022/01/07 04:18:29;;;;;;;19.52;10.20;;;;;;;3.22;100.00;101028.50;5066534;28;20052;-73
2022/01/07 04:20:58;;;;;;;19.88;10.43;;;;;;;3.23;100.00;101026.75;5064128;28;20461;-73
2022/01/07 04:23:26;;;;;;;19.70;10.23;;;;;;;3.23;100.00;101022.34;5066408;28;20175;-73
2022/01/07 04:25:57;;;;;;;18.25;8.90;;;;;;;3.21;100.00;101016.19;5063513;28;20051;-73
2022/01/07 04:28:24;;;;;;;18.90;10.57;;;;;;;3.17;100.00;101019.72;5065862;28;20076;-69
2022/01/07 04:30:52;;;;;;;17.02;10.48;;;;;;;3.15;100.00;101022.34;5063652;28;20049;-68
2022/01/07 04:33:26;;;;;;;15.73;9.80;;;;;;;3.13;100.00;101025.84;5066364;28;20086;-68
2022/01/07 04:35:55;;;;;;;17.20;9.63;;;;;;;3.10;100.00;101026.72;5065097;28;20199;-68
2022/01/07 04:38:25;;;;;;;19.60;9.10;;;;;;;3.15;100.00;101026.72;5063120;28;20052;-69
2022/01/07 04:40:53;;;;;;;15.48;9.55;;;;;;;3.18;100.00;101018.81;5065400;28;20048;-74
2022/01/07 04:43:21;;;;;;;18.58;9.75;;;;;;;3.20;100.00;101017.06;5062786;28;20134;-73
2022/01/07 04:45:49;;;;;;;17.83;7.95;;;;;;;3.22;100.00;101015.31;5064159;28;20071;-73
2022/01/07 04:48:17;;;;;;;19.35;9.52;;;;;;;3.26;100.00;101008.28;5065283;28;20130;-73
2022/01/07 04:50:45;;;;;;;16.30;9.27;;;;;;;3.26;100.00;101003.88;5065930;28;20558;-74
2022/01/07 04:53:12;;;;;;;19.08;10.43;;;;;;;3.26;100.00;101005.66;5064684;28;20053;-73
2022/01/07 04:56:06;;;;;;;16.52;9.02;;;;;;;3.29;100.00;101003.03;5065385;28;20059;-73
2022/01/07 04:58:35;;;;;;;23.65;11.18;;;;;;;3.33;100.00;101000.38;5067240;28;20236;-73
2022/01/07 05:01:04;;;;;;;17.98;10.43;;;;;;;3.39;100.00;100993.31;5072017;28;20117;-73
2022/01/07 05:03:32;;;;;;;18.52;10.73;;;;;;;3.41;100.00;101004.78;5068609;28;20052;-73
2022/01/07 05:06:13;;;;;;;19.27;11.40;;;;;;;3.44;100.00;101003.03;5070472;28;20052;-73
2022/01/07 05:08:41;;;;;;;25.17;12.90;;;;;;;3.48;100.00;101004.78;5067118;28;20072;-73
2022/01/07 05:11:10;;;;;;;22.88;12.32;;;;;;;3.49;100.00;100993.34;5065919;28;20048;-72
2022/01/07 05:13:38;;;;;;;18.80;12.38;;;;;;;3.49;100.00;100995.09;5066439;28;20154;-73
2022/01/07 05:16:06;;;;;;;23.70;12.20;;;;;;;3.53;100.00;101000.38;5066446;28;20184;-73
2022/01/07 05:18:34;;;;;;;19.58;11.65;;;;;;;3.57;100.00;100998.59;5069405;28;20131;-74
2022/01/07 05:21:02;;;;;;;21.60;12.68;;;;;;;3.62;100.00;100998.59;5067423;28;20127;-73
2022/01/07 05:23:30;;;;;;;22.05;13.40;;;;;;;3.63;100.00;101003.88;5069039;28;20051;-73
2022/01/07 05:25:58;;;;;;;24.67;13.43;;;;;;;3.62;100.00;101002.13;5070942;28;20055;-69
2022/01/07 05:28:27;;;;;;;20.20;10.93;;;;;;;3.65;100.00;101006.53;5067072;28;20051;-69
2022/01/07 05:30:55;;;;;;;22.65;10.50;;;;;;;3.65;100.00;101010.03;5070411;28;20070;-68
2022/01/07 05:33:23;;;;;;;19.17;11.20;;;;;;;3.59;100.00;101007.38;5068038;28;20058;-70
2022/01/07 05:35:53;;;;;;;24.15;12.30;;;;;;;3.61;100.00;101007.41;5065815;28;20055;-70
2022/01/07 05:38:21;;;;;;;17.75;11.13;;;;;;;3.61;100.00;101008.28;5066122;28;20706;-70
2022/01/07 05:40:49;;;;;;;20.00;10.93;;;;;;;3.59;100.00;101004.75;5069433;28;20635;-70
2022/01/07 05:43:17;;;;;;;20.67;11.48;;;;;;;3.57;100.00;100998.59;5069241;28;20051;-70
2022/01/07 05:45:46;;;;;;;16.92;9.32;;;;;;;3.57;100.00;101000.38;5068892;28;20044;-70
2022/01/07 05:48:16;;;;;;;22.88;12.70;;;;;;;3.57;100.00;100997.75;5066262;28;20078;-70
2022/01/07 05:50:44;;;;;;;22.35;12.68;;;;;;;3.56;100.00;101002.16;5066858;28;20479;-70
2022/01/07 05:53:13;;;;;;;22.75;12.70;;;;;;;3.57;100.00;101000.38;5066723;28;20048;-68
2022/01/07 05:55:41;;;;;;;23.02;13.05;;;;;;;3.57;100.00;101000.38;5067351;28;20087;-70
2022/01/07 05:58:09;;;;;;;22.50;12.57;;;;;;;3.59;100.00;100998.59;5069283;28;20075;-68
2022/01/07 06:00:38;;;;;;;29.05;13.68;;;;;;;3.62;100.00;100999.47;5065668;28;20128;-68
2022/01/07 06:03:07;;;;;;;26.10;13.27;;;;;;;3.67;100.00;101004.75;5069858;28;20216;-68
2022/01/07 06:05:36;;;;;;;33.03;14.32;;;;;;;3.71;100.00;101007.41;5050328;28;20052;-68
2022/01/07 06:08:04;;;;;;;25.20;14.55;;;;;;;3.75;100.00;101003.00;5067453;28;20195;-68
2022/01/07 06:10:32;;;;;;;21.40;13.20;;;;;;;3.75;100.00;101005.63;5066731;28;20128;-68
2022/01/07 06:13:00;;;;;;;20.42;11.13;;;;;;;3.79;100.00;101010.03;5067971;28;20577;-68
2022/01/07 06:15:28;;;;;;;24.70;12.27;;;;;;;3.78;100.00;101012.66;5068932;28;20491;-68
2022/01/07 06:17:56;;;;;;;24.10;13.82;;;;;;;3.77;100.00;101016.19;5063858;28;20051;-68
2022/01/07 06:20:26;;;;;;;29.90;13.63;;;;;;;3.71;100.00;101019.69;5067936;28;20056;-69
2022/01/07 06:23:19;;;;;;;27.63;13.27;;;;;;;3.76;100.00;101017.06;5063373;28;20051;-69
2022/01/07 06:25:50;;;;;;;27.55;13.40;;;;;;;3.72;100.00;101017.06;5066391;28;20543;-69
2022/01/07 06:28:18;;;;;;;28.02;12.55;;;;;;;3.71;100.00;101015.31;5065510;28;20525;-70
2022/01/07 06:30:46;;;;;;;21.95;12.20;;;;;;;3.71;100.00;101010.03;5068529;28;20052;-69
2022/01/07 06:33:14;;;;;;;21.20;12.50;;;;;;;3.74;100.00;100998.59;5068259;28;20178;-69
2022/01/07 06:35:43;;;;;;;36.75;12.70;;;;;;;3.73;100.00;101002.13;5064516;28;20427;-70
2022/01/07 06:38:11;;;;;;;23.30;11.95;;;;;;;3.80;100.00;100997.69;5067054;28;20062;-71
2022/01/07 06:40:39;;;;;;;24.75;12.38;;;;;;;3.80;100.00;101008.25;5065542;28;20052;-73
2022/01/07 06:43:07;;;;;;;27.05;12.63;;;;;;;3.77;100.00;101013.56;5067967;28;20139;-73
2022/01/07 06:45:35;;;;;;;21.88;12.20;;;;;;;3.83;100.00;101010.88;5065667;28;20162;-72
2022/01/07 06:48:03;;;;;;;27.95;13.70;;;;;;;3.78;100.00;101005.63;5066494;28;20052;-73
2022/01/07 06:50:31;;;;;;;28.42;14.15;;;;;;;3.79;100.00;101006.50;5067876;28;20391;-72
2022/01/07 06:53:01;;;;;;;29.30;14.52;;;;;;;3.78;100.00;101018.84;5063922;28;20480;-72
2022/01/07 06:55:47;;;;;;;28.25;14.10;;;;;;;3.72;100.00;101019.69;5064071;28;20049;-72
2022/01/07 06:58:15;;;;;;;25.83;14.35;;;;;;;3.73;100.00;101017.97;5066024;28;20223;-72
2022/01/07 07:00:42;;;;;;;24.20;15.07;;;;;;;3.68;100.00;101017.97;5065167;28;20488;-72
2022/01/07 07:03:12;;;;;;;22.58;13.05;;;;;;;3.67;100.00;101010.03;5071407;28;20047;-72
2022/01/07 07:05:40;;;;;;;32.25;13.15;;;;;;;3.68;100.00;101017.09;5066650;28;20055;-72
2022/01/07 07:08:09;;;;;;;20.52;11.43;;;;;;;3.64;100.00;101021.47;5066717;28;20071;-73
2022/01/07 07:10:37;;;;;;;17.30;11.43;;;;;;;3.57;100.00;101013.56;5066693;28;20488;-73
2022/01/07 07:13:05;;;;;;;20.08;9.93;;;;;;;3.57;100.00;101011.78;5068928;28;20136;-72
2022/01/07 07:15:33;;;;;;;23.58;10.63;;;;;;;3.52;100.00;101010.91;5067023;28;20048;-72
2022/01/07 07:18:01;;;;;;;18.70;9.65;;;;;;;3.50;100.00;101007.41;5066247;28;20076;-72
2022/01/07 07:20:29;;;;;;;18.73;9.77;;;;;;;3.43;100.00;100997.75;5068117;28;20056;-72
2022/01/07 07:22:58;;;;;;;19.15;9.23;;;;;;;3.35;100.00;101001.28;5067259;28;20633;-73
2022/01/07 07:25:27;;;;;;;17.30;8.07;;;;;;;3.40;100.00;100998.59;5065694;28;20159;-72
2022/01/07 07:27:55;;;;;;;18.70;8.52;;;;;;;3.47;100.00;100999.50;5061396;28;20052;-72
2022/01/07 07:30:24;;;;;;;16.80;8.48;;;;;;;3.36;100.00;100999.50;5065168;28;20052;-73
2022/01/07 07:32:54;;;;;;;26.77;7.97;;;;;;;3.45;100.00;100986.28;5063524;28;20543;-72
2022/01/07 07:38:07;;;;;;;14.18;7.90;;;;;;;3.34;100.00;100974.88;5067007;28;20059;-72
2022/01/07 07:40:36;;;;;;;18.85;7.75;;;;;;;3.38;100.00;100981.03;5064980;28;20078;-72
2022/01/07 07:43:04;;;;;;;19.60;7.82;;;;;;;3.32;100.00;100989.81;5062557;28;20251;-72
2022/01/07 07:45:32;;;;;;;20.58;7.18;;;;;;;3.36;100.00;100991.59;5064978;28;20059;-72
2022/01/07 07:48:01;;;;;;;17.08;5.93;;;;;;;3.37;100.00;100995.97;5064834;28;20128;-72
2022/01/07 07:50:29;;;;;;;18.77;6.40;;;;;;;3.41;100.00;100989.84;5064259;28;20052;-72
2022/01/07 07:52:57;;;;;;;15.73;6.55;;;;;;;3.38;100.00;101004.78;5064965;28;20048;-72
2022/01/07 07:55:25;;;;;;;17.02;6.60;;;;;;;3.33;100.00;100997.72;5066147;28;20468;-73
2022/01/07 07:57:54;;;;;;;21.00;6.80;;;;;;;3.39;100.00;100998.59;5067043;28;20047;-73
2022/01/07 08:00:23;;;;;;;12.23;5.90;;;;;;;3.34;100.00;101003.91;5067940;28;20048;-73
2022/01/07 08:02:53;;;;;;;11.80;5.93;;;;;;;3.33;100.00;101010.91;5066835;28;20048;-75
2022/01/07 08:05:21;;;;;;;10.88;5.45;;;;;;;3.30;100.00;101016.22;5064931;28;20166;-73
2022/01/07 08:07:49;;;;;;;14.27;6.20;;;;;;;3.30;100.00;101013.59;5064681;28;20098;-73
2022/01/07 08:10:23;;;;;;;15.48;6.65;;;;;;;3.25;100.00;101019.72;5065354;28;20656;-73
2022/01/07 08:12:52;;;;;;;15.35;6.97;;;;;;;3.40;100.00;101026.75;5063586;28;20492;-74
2022/01/07 08:18:07;;;;;;;14.52;6.22;;;;;;;3.33;100.00;101020.59;5064720;28;20048;-74
2022/01/07 08:21:02;;;;;;;17.42;7.60;;;;;;;3.35;100.00;101017.09;5066008;28;20097;-73
2022/01/07 08:23:32;;;;;;;16.67;7.05;;;;;;;3.31;100.00;101022.34;5065260;28;20054;-73
2022/01/07 08:26:02;;;;;;;11.18;5.55;;;;;;;3.31;100.00;101014.44;5066168;28;20064;-74
2022/01/07 08:28:37;;;;;;;15.45;6.30;;;;;;;3.31;100.00;101017.09;5064308;28;20060;-72
2022/01/07 08:31:25;;;;;;;14.73;6.40;;;;;;;3.34;100.00;101014.47;5066291;28;20110;-72
2022/01/07 08:36:39;;;;;;;21.33;6.78;;;;;;;3.37;100.00;101006.50;5068611;28;20087;-71
2022/01/07 08:39:09;;;;;;;16.65;7.00;;;;;;;3.36;100.00;101012.69;5068042;28;20078;-72
2022/01/07 08:41:39;;;;;;;20.85;7.03;;;;;;;3.42;100.00;101009.16;5069878;28;20443;-72
2022/01/07 08:44:08;;;;;;;12.70;6.82;;;;;;;3.52;100.00;101010.91;5069042;28;20052;-72
2022/01/07 08:46:37;;;;;;;18.25;7.32;;;;;;;3.49;100.00;101010.91;5067285;28;20052;-72
2022/01/07 08:49:06;;;;;;;17.55;7.03;;;;;;;3.46;100.00;101008.31;5068925;28;20117;-72
2022/01/07 08:51:35;;;;;;;15.27;5.60;;;;;;;3.55;100.00;101011.78;5065563;28;20082;-73
2022/01/07 08:54:03;;;;;;;17.80;6.75;;;;;;;3.63;100.00;101009.16;5068862;28;20052;-73
2022/01/07 08:56:34;;;;;;;17.23;7.93;;;;;;;3.82;100.00;101017.94;5070026;28;20109;-73
2022/01/07 08:59:02;;;;;;;17.85;7.78;;;;;;;4.00;100.00;101009.13;5069464;28;20048;-72
2022/01/07 09:01:37;;;;;;;14.15;7.32;;;;;;;4.15;100.00;101016.09;5067460;28;20078;-73
2022/01/07 09:04:05;;;;;;;19.92;7.93;;;;;;;4.27;100.00;101015.19;5067769;28;20048;-73
2022/01/07 09:06:33;;;;;;;16.00;6.47;;;;;;;4.32;100.00;101010.75;5068029;28;20548;-73
2022/01/07 09:09:02;;;;;;;14.55;6.97;;;;;;;4.29;100.00;100998.47;5070140;28;20052;-73
2022/01/07 09:11:30;;;;;;;18.52;7.07;;;;;;;4.29;100.00;101005.47;5068484;28;20448;-72
2022/01/07 09:13:58;;;;;;;15.77;6.88;;;;;;;4.30;100.00;101000.19;5067309;28;20071;-73
2022/01/07 09:16:26;;;;;;;15.57;5.97;;;;;;;4.25;100.00;100993.19;5069282;28;20056;-73
2022/01/07 09:18:56;;;;;;;14.32;6.68;;;;;;;4.21;100.00;101002.88;5066054;28;20048;-70
2022/01/07 09:21:24;;;;;;;15.52;5.68;;;;;;;4.17;100.00;101019.66;5066113;28;20048;-73
2022/01/07 09:23:55;;;;;;;18.42;6.43;;;;;;;4.21;100.00;101009.94;5068571;28;20131;-73
2022/01/07 09:26:23;;;;;;;11.93;5.75;;;;;;;4.31;100.00;101011.66;5066392;28;20160;-73
2022/01/07 09:28:51;;;;;;;13.15;5.20;;;;;;;4.41;100.00;101000.19;5070145;28;20052;-73
2022/01/07 09:31:20;;;;;;;15.60;6.30;;;;;;;4.40;100.00;101006.34;5067300;28;20080;-69
2022/01/07 09:33:51;;;;;;;18.92;6.68;;;;;;;4.37;100.00;101006.34;5065874;28;20252;-69
2022/01/07 09:36:43;;;;;;;12.52;5.10;;;;;;;4.34;100.00;101009.00;5049714;28;20507;-70
2022/01/07 09:39:11;;;;;;;19.13;6.50;;;;;;;4.36;100.00;101006.34;5066655;28;20140;-71
2022/01/07 09:41:39;;;;;;;17.70;5.72;;;;;;;4.36;100.00;101003.69;5062246;28;20052;-72
2022/01/07 09:44:09;;;;;;;15.25;6.40;;;;;;;4.37;100.00;101008.97;5066038;28;20054;-72
2022/01/07 09:46:37;;;;;;;11.02;6.47;;;;;;;4.43;100.00;101000.19;5063981;28;20052;-71
2022/01/07 09:49:07;;;;;;;17.83;7.63;;;;;;;4.57;100.00;101005.41;5065352;28;20076;-71
2022/01/07 09:51:38;;;;;;;14.68;6.20;;;;;;;4.78;100.00;101014.97;5064437;28;20086;-72
2022/01/07 09:54:08;;;;;;;24.75;8.30;;;;;;;4.81;100.00;101028.19;5067099;28;20055;-71
2022/01/07 09:57:01;;;;;;;10.95;5.57;;;;;;;4.82;100.00;101000.88;5068697;28;20514;-71
2022/01/07 09:59:29;;;;;;;14.55;5.65;;;;;;;4.73;100.00;101014.13;5067127;28;20044;-71
2022/01/07 10:01:58;;;;;;;16.42;6.22;;;;;;;4.70;100.00;101009.75;5063061;28;20122;-71
2022/01/07 10:04:28;;;;;;;17.30;4.82;;;;;;;4.60;100.00;101008.91;5066464;28;20052;-70
2022/01/07 10:07:13;;;;;;;10.00;4.65;;;;;;;4.61;100.00;101015.06;5067299;28;20044;-72
2022/01/07 10:09:43;;;;;;;25.02;6.40;;;;;;;4.63;100.00;101013.28;5066307;28;20052;-72
2022/01/07 10:12:11;;;;;;;15.50;6.85;;;;;;;4.60;100.00;101013.31;5067265;28;20051;-71
2022/01/07 10:14:39;;;;;;;12.63;5.60;;;;;;;4.70;100.00;101014.13;5065328;28;20136;-70
2022/01/07 10:17:07;;;;;;;13.43;6.13;;;;;;;4.71;100.00;101016.75;5066538;28;20651;-70
2022/01/07 10:19:39;;;;;;;13.45;6.78;;;;;;;4.80;100.00;101005.25;5068796;28;20224;-69
2022/01/07 10:22:09;;;;;;;15.27;7.43;;;;;;;4.80;100.00;100994.69;5068777;28;20067;-70
2022/01/07 10:24:54;;;;;;;13.90;6.68;;;;;;;4.88;100.00;101005.22;5059547;28;20083;-69
2022/01/07 10:27:23;;;;;;;22.23;7.63;;;;;;;4.90;100.00;101001.66;5068123;28;20245;-70
2022/01/07 10:29:51;;;;;;;18.02;6.90;;;;;;;5.04;100.00;100994.53;5066650;28;20060;-70
2022/01/07 10:32:25;;;;;;;16.88;6.15;;;;;;;4.91;100.00;100992.00;5067382;28;20060;-70
2022/01/07 10:35:04;;;;;;;;;;;;;;;5.09;100.00;101001.56;5065811;28;20528;-70
2022/01/07 10:37:32;;;;;;;8.55;4.47;;;;;;;5.12;100.00;100991.84;5067750;28;20397;-70
2022/01/07 10:40:02;;;;;;;13.68;4.88;;;;;;;5.16;100.00;101004.16;5065938;28;20549;-70
2022/01/07 10:42:29;;;;;;;9.63;4.38;;;;;;;5.01;100.00;100996.34;5068385;28;20086;-70
2022/01/07 10:44:59;;;;;;;10.65;5.53;;;;;;;4.94;100.00;100987.56;5067669;28;20049;-70
2022/01/07 10:47:29;;;;;;;11.45;4.35;;;;;;;4.98;100.00;100993.69;5066959;28;20407;-70
2022/01/07 10:50:17;;;;;;;17.50;4.70;;;;;;;5.13;100.00;100990.97;5064194;28;20071;-70
2022/01/07 10:52:44;;;;;;;13.02;4.20;;;;;;;5.36;100.00;100992.53;5065941;28;20517;-70
2022/01/07 10:55:17;;;;;;;13.27;6.00;;;;;;;5.61;100.00;100986.13;5065136;28;20079;-70
2022/01/07 10:57:50;;;;;;;13.52;4.45;;;;;;;5.81;100.00;100979.78;5064787;28;20571;-70
2022/01/07 11:00:21;;;;;;;18.10;4.50;;;;;;;6.16;100.00;100978.53;5065388;28;20040;-70
2022/01/07 11:02:49;;;;;;;17.63;4.97;;;;;;;6.20;100.00;100982.94;5064770;28;20132;-70
2022/01/07 11:05:16;;;;;;;14.02;3.85;;;;;;;6.24;100.00;100973.16;5066818;28;20054;-70
2022/01/07 11:07:45;;;;;;;15.27;4.95;;;;;;;6.44;100.00;100981.75;5064822;28;20071;-70
2022/01/07 11:10:14;;;;;;;15.70;3.72;;;;;;;6.65;100.00;100977.94;5063885;28;20046;-71
2022/01/07 11:12:42;;;;;;;15.05;3.05;;;;;;;6.40;100.00;100979.16;5065145;28;20045;-74
2022/01/07 11:15:10;;;;;;;13.55;2.75;;;;;;;6.29;100.00;100981.94;5065958;28;20051;-74
2022/01/07 11:17:38;;;;;;;8.95;2.75;;;;;;;6.26;100.00;101000.53;5065511;28;20209;-73
2022/01/07 11:20:07;;;;;;;10.02;2.53;;;;;;;6.11;100.00;101002.47;5065677;28;21000;-73
2022/01/07 11:22:40;;;;;;;4.88;1.98;;;;;;;6.04;100.00;101003.41;5072219;28;20448;-73
2022/01/07 11:25:11;;;;;;;10.25;2.00;;;;;;;5.92;100.00;100996.44;5064912;28;20609;-73
2022/01/07 11:27:51;;;;;;;7.72;2.03;;;;;;;5.93;100.00;101011.44;5068258;28;20059;-74
2022/01/07 11:30:21;;;;;;;6.30;2.10;;;;;;;5.82;100.00;100997.41;5064694;28;21450;-73
2022/01/07 11:32:51;;;;;;;8.63;1.52;;;;;;;5.65;100.00;101002.00;5067650;28;20048;-74
2022/01/07 11:35:49;;;;;;;12.43;2.53;;;;;;;5.67;100.00;101000.22;5064092;28;20094;-74